createdAt,value
2023-01-26T00:00:01.398Z,26.08
2023-01-26T00:02:32.362Z,25.75
2023-01-26T00:05:04.847Z,29.17
2023-01-26T00:07:36.408Z,25.20
2023-01-26T00:10:07.430Z,26.75
2023-01-26T00:12:38.242Z,26.85
2023-01-26T00:15:09.458Z,25.60
2023-01-26T00:18:01.150Z,23.88
2023-01-26T00:20:32.557Z,28.25
2023-01-26T00:23:03.668Z,29.10
2023-01-26T00:25:34.780Z,30.13
2023-01-26T00:28:05.771Z,30.25
2023-01-26T00:30:37.665Z,27.58
2023-01-26T00:33:08.718Z,31.10
2023-01-26T00:35:39.698Z,25.25
2023-01-26T00:38:10.727Z,26.05
2023-01-26T00:40:42.356Z,29.10
2023-01-26T00:43:13.372Z,25.80
2023-01-26T00:45:44.635Z,32.08
2023-01-26T00:48:16.479Z,26.67
2023-01-26T00:50:48.573Z,26.75
2023-01-26T00:53:19.226Z,25.92
2023-01-26T00:55:49.998Z,29.23
2023-01-26T00:58:20.951Z,26.38
2023-01-26T01:00:55.299Z,31.20
2023-01-26T01:03:27.324Z,32.43
2023-01-26T01:05:58.008Z,27.55
2023-01-26T01:08:28.827Z,26.25
2023-01-26T01:11:08.251Z,30.63
2023-01-26T01:13:39.492Z,31.38
2023-01-26T01:16:13.271Z,30.65
2023-01-26T01:18:45.212Z,27.88
2023-01-26T01:21:18.732Z,26.38
2023-01-26T01:24:09.704Z,27.70
2023-01-26T01:26:42.209Z,28.08
2023-01-26T01:29:15.869Z,26.05
2023-01-26T01:31:47.814Z,30.77
2023-01-26T01:34:18.639Z,30.33
2023-01-26T01:36:49.645Z,32.20
2023-01-26T01:39:26.371Z,27.67
2023-01-26T01:41:57.500Z,25.75
2023-01-26T01:44:29.061Z,23.10
2023-01-26T01:47:08.708Z,25.33
2023-01-26T01:49:51.543Z,26.75
2023-01-26T01:52:49.738Z,26.35
2023-01-26T01:55:22.274Z,25.05
2023-01-26T01:58:05.299Z,25.75
2023-01-26T02:00:59.214Z,26.42
2023-01-26T02:03:32.686Z,31.67
2023-01-26T02:06:17.775Z,29.85
2023-01-26T02:08:54.732Z,28.02
2023-01-26T02:11:28.979Z,28.55
2023-01-26T02:14:02.747Z,26.75
2023-01-26T02:16:34.719Z,28.65
2023-01-26T02:19:10.969Z,29.30
2023-01-26T02:21:43.011Z,28.45
2023-01-26T02:24:31.265Z,25.45
2023-01-26T02:27:02.729Z,28.85
2023-01-26T02:29:34.186Z,25.75
2023-01-26T02:32:06.970Z,25.48
2023-01-26T02:34:37.841Z,26.92
2023-01-26T02:37:15.361Z,27.30
2023-01-26T02:39:56.140Z,26.63
2023-01-26T02:42:40.474Z,28.70
2023-01-26T02:45:15.917Z,27.97
2023-01-26T02:47:49.221Z,28.08
2023-01-26T02:50:21.026Z,26.02
2023-01-26T02:52:52.237Z,24.73
2023-01-26T02:55:46.318Z,32.47
2023-01-26T02:58:17.470Z,24.55
2023-01-26T03:00:48.755Z,23.75
2023-01-26T03:03:28.177Z,27.98
2023-01-26T03:06:00.841Z,27.75
2023-01-26T03:08:35.586Z,28.65
2023-01-26T03:11:07.813Z,26.55
2023-01-26T03:13:39.194Z,26.83
2023-01-26T03:16:31.384Z,30.73
2023-01-26T03:19:05.305Z,24.48
2023-01-26T03:21:54.423Z,26.70
2023-01-26T03:24:43.700Z,26.15
2023-01-26T03:27:29.758Z,24.98
2023-01-26T03:30:05.968Z,23.58
2023-01-26T03:32:36.882Z,27.50
2023-01-26T03:35:16.978Z,30.63
2023-01-26T03:37:48.281Z,27.77
2023-01-26T03:40:44.893Z,30.02
2023-01-26T03:43:55.619Z,31.67
2023-01-26T03:46:45.123Z,27.00
2023-01-26T03:49:34.739Z,29.85
2023-01-26T03:52:26.450Z,32.30
2023-01-26T03:55:15.993Z,29.40
2023-01-26T03:57:47.403Z,29.90
2023-01-26T04:00:37.388Z,32.00
2023-01-26T04:03:27.553Z,27.75
2023-01-26T04:06:39.010Z,26.30
2023-01-26T04:09:10.524Z,30.70
2023-01-26T04:11:50.624Z,32.17
2023-01-26T04:14:59.230Z,28.33
2023-01-26T04:17:54.346Z,26.35
2023-01-26T04:20:43.239Z,29.95
2023-01-26T04:23:22.094Z,27.02
2023-01-26T04:25:54.910Z,27.50
2023-01-26T04:28:25.886Z,29.17
2023-01-26T04:30:57.359Z,26.73
2023-01-26T04:33:28.544Z,27.35
2023-01-26T04:36:04.162Z,32.15
2023-01-26T04:38:38.930Z,28.60
2023-01-26T04:41:10.915Z,32.40
2023-01-26T04:43:51.380Z,25.50
2023-01-26T04:46:24.551Z,32.78
2023-01-26T04:48:55.749Z,31.42
2023-01-26T04:51:27.781Z,31.58
2023-01-26T04:53:59.331Z,27.65
2023-01-26T04:56:38.741Z,29.05
2023-01-26T04:59:10.131Z,34.50
2023-01-26T05:04:15.976Z,26.48
2023-01-26T05:06:53.676Z,27.42
2023-01-26T05:09:27.704Z,27.33
2023-01-26T05:12:36.599Z,32.53
2023-01-26T05:18:29.519Z,29.25
2023-01-26T05:22:25.755Z,27.27
2023-01-26T05:24:19.920Z,29.13
2023-01-26T05:27:25.710Z,27.77
2023-01-26T05:30:04.216Z,33.13
2023-01-26T05:32:38.615Z,28.83
2023-01-26T05:35:10.395Z,29.02
2023-01-26T05:37:43.898Z,54.20
2023-01-26T05:42:56.603Z,51.05
2023-01-26T05:45:43.585Z,50.00
2023-01-26T05:48:35.640Z,49.33
2023-01-26T05:51:07.584Z,45.35
2023-01-26T05:53:41.495Z,39.08
2023-01-26T05:56:13.942Z,42.17
2023-01-26T05:58:53.072Z,42.00
2023-01-26T06:01:27.843Z,39.42
2023-01-26T06:04:05.493Z,41.80
2023-01-26T06:06:43.119Z,39.03
2023-01-26T06:12:24.979Z,39.05
2023-01-26T06:15:11.865Z,39.13
2023-01-26T06:17:47.998Z,45.25
2023-01-26T06:20:19.728Z,46.63
2023-01-26T06:23:07.287Z,43.45
2023-01-26T06:25:43.157Z,44.13
2023-01-26T06:28:14.376Z,39.25
2023-01-26T06:30:46.547Z,40.75
2023-01-26T06:33:18.667Z,41.25
2023-01-26T06:35:49.866Z,38.15
2023-01-26T06:38:24.169Z,44.08
2023-01-26T06:40:59.206Z,42.75
2023-01-26T06:43:33.620Z,44.58
2023-01-26T06:46:05.585Z,39.20
2023-01-26T06:48:38.493Z,39.72
2023-01-26T06:51:18.465Z,41.33
2023-01-26T06:53:56.511Z,44.05
2023-01-26T06:56:35.757Z,47.92
2023-01-26T06:59:23.775Z,42.38
2023-01-26T07:02:26.379Z,41.40
2023-01-26T07:04:59.244Z,41.67
2023-01-26T07:07:31.253Z,41.42
2023-01-26T07:10:02.332Z,41.75
2023-01-26T07:12:48.054Z,42.70
2023-01-26T07:15:24.629Z,43.45
2023-01-26T07:17:56.188Z,39.15
2023-01-26T07:20:27.592Z,40.80
2023-01-26T07:22:58.745Z,37.90
2023-01-26T07:25:31.771Z,39.40
2023-01-26T07:30:46.584Z,38.85
2023-01-26T07:33:18.678Z,39.88
2023-01-26T07:35:50.910Z,38.60
2023-01-26T07:38:23.233Z,35.53
2023-01-26T07:40:54.954Z,38.53
2023-01-26T07:43:26.616Z,40.70
2023-01-26T07:45:59.381Z,35.95
2023-01-26T07:48:32.320Z,38.90
2023-01-26T07:51:05.649Z,40.05
2023-01-26T07:53:40.932Z,43.78
2023-01-26T07:56:21.747Z,38.20
2023-01-26T07:58:56.459Z,42.05
2023-01-26T08:01:32.287Z,35.55
2023-01-26T08:04:04.042Z,38.88
2023-01-26T08:06:39.706Z,40.80
2023-01-26T08:09:13.119Z,37.15
2023-01-26T08:11:49.083Z,37.83
2023-01-26T08:14:22.789Z,42.25
2023-01-26T08:16:54.727Z,47.20
2023-01-26T08:19:26.829Z,46.45
2023-01-26T08:21:58.893Z,41.15
2023-01-26T08:24:30.177Z,41.30
2023-01-26T08:27:02.973Z,42.88
2023-01-26T08:29:34.082Z,42.70
2023-01-26T08:32:08.362Z,43.03
2023-01-26T08:34:43.033Z,38.88
2023-01-26T08:37:14.258Z,39.30
2023-01-26T08:39:45.698Z,36.58
2023-01-26T08:42:17.669Z,39.45
2023-01-26T08:44:49.022Z,44.95
2023-01-26T08:47:25.200Z,40.75
2023-01-26T08:49:56.145Z,35.58
2023-01-26T08:55:15.434Z,38.88
2023-01-26T08:57:48.571Z,38.20
2023-01-26T09:00:19.886Z,38.53
2023-01-26T09:02:51.163Z,37.20
2023-01-26T09:05:46.619Z,38.58
2023-01-26T09:08:17.760Z,37.72
2023-01-26T09:10:51.173Z,39.78
2023-01-26T09:13:23.292Z,37.67
2023-01-26T09:15:54.422Z,37.53
2023-01-26T09:18:27.742Z,43.38
2023-01-26T09:21:16.595Z,41.67
2023-01-26T09:23:47.952Z,42.00
2023-01-26T09:26:31.028Z,40.67
2023-01-26T09:29:05.908Z,39.58
2023-01-26T09:31:39.869Z,39.33
2023-01-26T09:34:30.623Z,38.23
2023-01-26T09:37:43.250Z,38.38
2023-01-26T09:40:39.962Z,38.58
2023-01-26T09:43:29.505Z,37.85
2023-01-26T09:46:50.377Z,37.92
2023-01-26T09:49:39.221Z,40.83
2023-01-26T09:55:15.778Z,37.97
2023-01-26T09:57:59.039Z,36.38
2023-01-26T10:00:54.565Z,36.50
2023-01-26T10:06:38.347Z,37.53
2023-01-26T10:09:37.286Z,38.47
2023-01-26T10:12:14.557Z,33.97
2023-01-26T10:15:06.419Z,39.35
2023-01-26T10:17:43.469Z,39.80
2023-01-26T10:20:35.989Z,37.88
2023-01-26T10:23:14.291Z,35.03
2023-01-26T10:25:48.526Z,34.00
2023-01-26T10:28:40.991Z,34.00
2023-01-26T10:31:22.042Z,33.95
2023-01-26T10:34:05.026Z,34.58
2023-01-26T10:36:43.977Z,40.33
2023-01-26T10:39:20.154Z,37.60
2023-01-26T10:42:09.472Z,37.60
2023-01-26T10:44:42.472Z,44.50
2023-01-26T10:47:18.012Z,41.90
2023-01-26T10:50:15.627Z,40.30
2023-01-26T10:53:04.913Z,44.65
2023-01-26T10:55:38.996Z,43.63
2023-01-26T10:58:47.859Z,42.30
2023-01-26T11:01:28.759Z,44.58
2023-01-26T11:04:13.946Z,41.55
2023-01-26T11:06:45.136Z,39.97
2023-01-26T11:09:36.304Z,35.83
2023-01-26T11:12:08.459Z,39.08
2023-01-26T11:14:39.913Z,38.88
2023-01-26T11:17:26.701Z,40.22
2023-01-26T11:23:19.493Z,40.92
2023-01-26T11:26:36.669Z,40.72
2023-01-26T11:29:52.828Z,38.67
2023-01-26T11:32:54.477Z,39.30
2023-01-26T11:35:35.189Z,36.33
2023-01-26T11:38:33.809Z,35.72
2023-01-26T11:41:24.488Z,35.70
2023-01-26T11:44:20.217Z,39.63
2023-01-26T11:47:37.705Z,38.15
2023-01-26T11:50:29.256Z,35.97
2023-01-26T11:53:12.791Z,34.90
2023-01-26T11:56:03.689Z,34.30
2023-01-26T11:58:48.899Z,35.13
2023-01-26T12:01:43.285Z,30.83
2023-01-26T12:04:22.962Z,32.28
2023-01-26T12:07:34.391Z,37.05
2023-01-26T12:10:09.306Z,31.90
2023-01-26T12:19:05.469Z,33.05
2023-01-26T12:22:00.677Z,35.65
2023-01-26T12:25:18.131Z,34.20
2023-01-26T12:28:10.206Z,34.53
2023-01-26T12:30:52.269Z,34.90
2023-01-26T12:33:28.919Z,33.92
2023-01-26T12:36:38.933Z,31.73
2023-01-26T12:39:39.634Z,30.77
2023-01-26T12:42:37.011Z,30.48
2023-01-26T12:45:29.868Z,33.65
2023-01-26T12:48:16.873Z,26.30
2023-01-26T12:51:14.343Z,31.48
2023-01-26T12:54:18.133Z,27.92
2023-01-26T12:56:56.509Z,26.42
2023-01-26T12:59:47.145Z,31.48
2023-01-26T13:02:20.306Z,29.38
2023-01-26T13:04:52.606Z,31.40
2023-01-26T13:07:42.987Z,31.10
2023-01-26T13:10:56.487Z,31.42
2023-01-26T13:13:38.339Z,33.40
